Cashiers, NC (28717)

9:46 PM EDT on September 22, 2014 (GMT -0400)
Chattooga Club | Change Station
CLOSE
Current Station
Personal Weather Station
Location: Cashiers, NC
Elevation: 3533 ft
Nearby Weather Stations

Elev 3533 ft 35.09 °N, 83.08 °W | Updated 159 days ago

Clear
Clear
51 °F
Feels Like 51 °F
N
9
Wind Variable Wind from NNE
Gusts 11 mph

Today
High -- | Low -- °F
--% Chance of Precip.
Yesterday
High -- | Low -- °F
Precip. -- in
7:20 AM 7:29 PM
Waning Crescent, 1% visible
Pressure 30.21 in
Visibility 10.0 miles
Clouds
Dew Point 45 °F
Humidity 80%
Rainfall 0.00 in
Snow Depth Not available.
UV Not available.
Pollen 6.50 out of 12
Ozone Good
PM2.5 Good
Flu Activity Not available.
METAR K1A5 230135Z AUTO 00000KT 10SM 12/10 A3021 RMK AO2 T01150100

More Conditions Fewer Conditions

Pressure 30.21 in
Visibility 10.0 miles
Clouds
Dew Point 45 °F
Humidity 80%
Rainfall 0.00 in
Snow Depth Not available.
UV Not available.
Pollen 6.50 out of 12
Ozone Good
PM2.5 Good
Flu Activity Not available.
METAR K1A5 230135Z AUTO 00000KT 10SM 12/10 A3021 RMK AO2 T01150100

More Conditions Fewer Conditions

10-Day Weather Forecast

Almanac

Astronomy

Sep. 22, 2014 Rise Set
Actual Time 7:20 AM EDT 7:29 PM EDT
Civil Twilight 6:55 AM EDT 7:54 PM EDT
Nautical Twilight 6:25 AM EDT 8:23 PM EDT
Astronomical Twilight 5:55 AM EDT 8:53 PM EDT
Moon 5:50 AM EDT (9/22) 6:34 PM EDT (9/22)
Length of Visible Light 12h 59m
Length of Day
12h 08m
Tomorrow will be 2m 10s shorter.
Waning Crescent, 1% of the Moon is Illuminated
Today
Waning Crescent
Sep 24
New
Oct 1
First Quarter
Oct 8
Full
Oct 15
Last Quarter

Today's Extremes

State Highs State Lows

Community

WunderPhotos

Upload Photos

1,755,583 photos uploaded!

Nearby

Air Quality

  Air Quality AQ Index Pollutant
Yesterday Good
PM2.5
Yesterday Good
OZONE
Current Good
OZONE
Current Good
PM2.5
Monday Good
PM2.5
Monday Good
OZONE
Tuesday Good
OZONE
Tuesday Good
PM2.5
Wednesday Good
PM2.5
Wednesday Good
OZONE
Thursday Good
PM2.5
Thursday Good
OZONE

Snow Depth

Station Depth Elevation
No new snow has been reported.

Earthquake Activity

City Distance Mag. Time & Date
Sweetwater, Tennessee 84 miles 2.5 3:54 PM EDT
2014-09-20
New Ellenton, South Carolina 137 miles 2.6 4:38 PM EDT
2014-09-19
Minimum magnitude displayed is 2.5.

Coastal Water Temperatures

Place Temperature
No Stations Reporting

Nearby Weather Stations